sensor_id;sensor_type;location;lat;lon;timestamp;P1;durP1;ratioP1;P2;durP2;ratioP2
14817;SDS011;7500;57.698;11.986;2023-04-24T00:03:16;23.00;;;16.03;;
14817;SDS011;7500;57.698;11.986;2023-04-24T00:06:43;17.13;;;15.23;;
14817;SDS011;7500;57.698;11.986;2023-04-24T00:10:10;17.27;;;15.33;;
14817;SDS011;7500;57.698;11.986;2023-04-24T00:13:35;17.83;;;15.00;;
14817;SDS011;7500;57.698;11.986;2023-04-24T00:17:01;16.43;;;14.73;;
14817;SDS011;7500;57.698;11.986;2023-04-24T00:20:27;16.23;;;14.57;;
14817;SDS011;7500;57.698;11.986;2023-04-24T00:23:54;16.43;;;14.60;;
14817;SDS011;7500;57.698;11.986;2023-04-24T00:27:20;17.63;;;14.53;;
14817;SDS011;7500;57.698;11.986;2023-04-24T00:30:46;18.47;;;15.27;;
14817;SDS011;7500;57.698;11.986;2023-04-24T00:34:11;17.37;;;15.17;;
14817;SDS011;7500;57.698;11.986;2023-04-24T00:37:37;16.43;;;14.37;;
14817;SDS011;7500;57.698;11.986;2023-04-24T00:41:03;16.40;;;14.17;;
14817;SDS011;7500;57.698;11.986;2023-04-24T00:44:31;21.37;;;15.37;;
14817;SDS011;7500;57.698;11.986;2023-04-24T00:47:57;17.03;;;14.73;;
14817;SDS011;7500;57.698;11.986;2023-04-24T00:51:25;18.47;;;15.30;;
14817;SDS011;7500;57.698;11.986;2023-04-24T00:54:51;17.37;;;14.97;;
14817;SDS011;7500;57.698;11.986;2023-04-24T00:58:18;17.27;;;14.33;;
14817;SDS011;7500;57.698;11.986;2023-04-24T01:01:44;16.97;;;14.87;;
14817;SDS011;7500;57.698;11.986;2023-04-24T01:05:10;17.83;;;15.40;;
14817;SDS011;7500;57.698;11.986;2023-04-24T01:08:36;17.83;;;15.23;;
14817;SDS011;7500;57.698;11.986;2023-04-24T01:12:02;18.13;;;15.13;;
14817;SDS011;7500;57.698;11.986;2023-04-24T01:15:29;17.03;;;14.63;;
14817;SDS011;7500;57.698;11.986;2023-04-24T01:18:55;16.63;;;14.13;;
14817;SDS011;7500;57.698;11.986;2023-04-24T01:22:23;16.97;;;14.63;;
14817;SDS011;7500;57.698;11.986;2023-04-24T01:25:49;21.20;;;16.23;;
14817;SDS011;7500;57.698;11.986;2023-04-24T01:29:14;17.17;;;14.70;;
14817;SDS011;7500;57.698;11.986;2023-04-24T01:32:40;18.03;;;14.70;;
14817;SDS011;7500;57.698;11.986;2023-04-24T01:36:08;16.80;;;15.00;;
14817;SDS011;7500;57.698;11.986;2023-04-24T01:39:36;17.97;;;14.03;;
14817;SDS011;7500;57.698;11.986;2023-04-24T01:43:01;18.77;;;14.20;;
14817;SDS011;7500;57.698;11.986;2023-04-24T01:46:28;15.73;;;14.17;;
14817;SDS011;7500;57.698;11.986;2023-04-24T01:49:54;16.33;;;14.10;;
14817;SDS011;7500;57.698;11.986;2023-04-24T01:53:19;16.20;;;14.30;;
14817;SDS011;7500;57.698;11.986;2023-04-24T01:56:46;17.60;;;14.60;;
14817;SDS011;7500;57.698;11.986;2023-04-24T02:00:12;17.17;;;13.77;;
14817;SDS011;7500;57.698;11.986;2023-04-24T02:03:41;16.70;;;14.07;;
14817;SDS011;7500;57.698;11.986;2023-04-24T02:07:07;17.50;;;14.13;;
14817;SDS011;7500;57.698;11.986;2023-04-24T02:10:32;16.73;;;14.83;;
14817;SDS011;7500;57.698;11.986;2023-04-24T02:13:59;15.63;;;13.83;;
14817;SDS011;7500;57.698;11.986;2023-04-24T02:17:24;15.63;;;13.93;;
14817;SDS011;7500;57.698;11.986;2023-04-24T02:20:50;16.00;;;14.03;;
14817;SDS011;7500;57.698;11.986;2023-04-24T02:24:16;15.70;;;13.57;;
14817;SDS011;7500;57.698;11.986;2023-04-24T02:27:41;15.37;;;13.67;;
14817;SDS011;7500;57.698;11.986;2023-04-24T02:31:08;15.60;;;13.60;;
14817;SDS011;7500;57.698;11.986;2023-04-24T02:34:37;16.27;;;14.30;;
14817;SDS011;7500;57.698;11.986;2023-04-24T02:38:03;16.57;;;13.73;;
14817;SDS011;7500;57.698;11.986;2023-04-24T02:41:28;15.03;;;13.50;;
14817;SDS011;7500;57.698;11.986;2023-04-24T02:44:54;16.53;;;14.07;;
14817;SDS011;7500;57.698;11.986;2023-04-24T02:48:21;16.83;;;13.77;;
14817;SDS011;7500;57.698;11.986;2023-04-24T02:51:46;17.10;;;13.73;;
14817;SDS011;7500;57.698;11.986;2023-04-24T02:55:12;17.43;;;13.63;;
14817;SDS011;7500;57.698;11.986;2023-04-24T02:58:38;14.90;;;13.00;;
14817;SDS011;7500;57.698;11.986;2023-04-24T03:02:04;17.53;;;13.80;;
14817;SDS011;7500;57.698;11.986;2023-04-24T03:05:30;17.40;;;13.07;;
14817;SDS011;7500;57.698;11.986;2023-04-24T03:08:56;16.47;;;13.20;;
14817;SDS011;7500;57.698;11.986;2023-04-24T03:12:23;15.30;;;13.63;;
14817;SDS011;7500;57.698;11.986;2023-04-24T03:15:48;14.67;;;13.10;;
14817;SDS011;7500;57.698;11.986;2023-04-24T03:19:14;13.73;;;12.20;;
14817;SDS011;7500;57.698;11.986;2023-04-24T03:22:41;15.07;;;12.67;;
14817;SDS011;7500;57.698;11.986;2023-04-24T03:26:06;15.63;;;12.47;;
14817;SDS011;7500;57.698;11.986;2023-04-24T03:29:32;15.97;;;13.73;;
14817;SDS011;7500;57.698;11.986;2023-04-24T03:32:57;17.00;;;13.40;;
14817;SDS011;7500;57.698;11.986;2023-04-24T03:36:24;16.73;;;13.40;;
14817;SDS011;7500;57.698;11.986;2023-04-24T03:39:51;16.37;;;12.80;;
14817;SDS011;7500;57.698;11.986;2023-04-24T03:43:16;17.30;;;12.80;;
14817;SDS011;7500;57.698;11.986;2023-04-24T03:46:42;16.20;;;11.43;;
14817;SDS011;7500;57.698;11.986;2023-04-24T03:50:07;15.27;;;12.30;;
14817;SDS011;7500;57.698;11.986;2023-04-24T03:53:33;15.87;;;11.73;;
14817;SDS011;7500;57.698;11.986;2023-04-24T03:57:00;16.53;;;12.47;;
14817;SDS011;7500;57.698;11.986;2023-04-24T04:00:26;13.10;;;11.63;;
14817;SDS011;7500;57.698;11.986;2023-04-24T04:03:53;13.40;;;11.07;;
14817;SDS011;7500;57.698;11.986;2023-04-24T04:07:19;16.37;;;12.57;;
14817;SDS011;7500;57.698;11.986;2023-04-24T04:10:45;14.13;;;12.13;;
14817;SDS011;7500;57.698;11.986;2023-04-24T04:14:12;14.93;;;11.60;;
14817;SDS011;7500;57.698;11.986;2023-04-24T04:17:38;14.40;;;12.43;;
14817;SDS011;7500;57.698;11.986;2023-04-24T04:21:03;14.10;;;11.97;;
14817;SDS011;7500;57.698;11.986;2023-04-24T04:24:28;17.53;;;12.17;;
14817;SDS011;7500;57.698;11.986;2023-04-24T04:27:54;13.53;;;11.70;;
14817;SDS011;7500;57.698;11.986;2023-04-24T04:31:21;12.80;;;11.27;;
14817;SDS011;7500;57.698;11.986;2023-04-24T04:34:47;15.97;;;11.73;;
14817;SDS011;7500;57.698;11.986;2023-04-24T04:38:14;18.53;;;12.60;;
14817;SDS011;7500;57.698;11.986;2023-04-24T04:41:40;15.20;;;12.30;;
14817;SDS011;7500;57.698;11.986;2023-04-24T04:45:06;14.67;;;10.83;;
14817;SDS011;7500;57.698;11.986;2023-04-24T04:48:35;15.57;;;11.63;;
14817;SDS011;7500;57.698;11.986;2023-04-24T04:52:01;12.90;;;11.50;;
14817;SDS011;7500;57.698;11.986;2023-04-24T04:55:26;12.53;;;10.67;;
14817;SDS011;7500;57.698;11.986;2023-04-24T04:58:52;12.57;;;11.00;;
14817;SDS011;7500;57.698;11.986;2023-04-24T05:02:17;15.27;;;11.53;;
14817;SDS011;7500;57.698;11.986;2023-04-24T05:05:44;14.93;;;11.30;;
14817;SDS011;7500;57.698;11.986;2023-04-24T05:09:10;12.30;;;10.60;;
14817;SDS011;7500;57.698;11.986;2023-04-24T05:12:35;13.60;;;11.10;;
14817;SDS011;7500;57.698;11.986;2023-04-24T05:16:01;15.80;;;11.43;;
14817;SDS011;7500;57.698;11.986;2023-04-24T05:19:27;11.80;;;10.60;;
14817;SDS011;7500;57.698;11.986;2023-04-24T05:22:54;15.57;;;11.47;;
14817;SDS011;7500;57.698;11.986;2023-04-24T05:26:19;15.73;;;10.53;;
14817;SDS011;7500;57.698;11.986;2023-04-24T05:29:45;11.83;;;10.63;;
14817;SDS011;7500;57.698;11.986;2023-04-24T05:33:11;17.07;;;11.43;;
14817;SDS011;7500;57.698;11.986;2023-04-24T05:36:36;13.30;;;10.57;;
14817;SDS011;7500;57.698;11.986;2023-04-24T05:40:04;12.53;;;10.80;;
14817;SDS011;7500;57.698;11.986;2023-04-24T05:43:29;10.83;;;9.73;;
14817;SDS011;7500;57.698;11.986;2023-04-24T05:46:55;13.13;;;10.63;;
14817;SDS011;7500;57.698;11.986;2023-04-24T05:50:20;13.70;;;10.80;;
14817;SDS011;7500;57.698;11.986;2023-04-24T05:53:46;12.63;;;11.07;;
14817;SDS011;7500;57.698;11.986;2023-04-24T05:57:13;13.10;;;10.83;;
14817;SDS011;7500;57.698;11.986;2023-04-24T06:00:39;13.83;;;10.13;;
14817;SDS011;7500;57.698;11.986;2023-04-24T06:04:05;16.47;;;10.90;;
14817;SDS011;7500;57.698;11.986;2023-04-24T06:07:31;11.87;;;10.50;;
14817;SDS011;7500;57.698;11.986;2023-04-24T06:10:56;13.30;;;10.63;;
14817;SDS011;7500;57.698;11.986;2023-04-24T06:14:24;12.00;;;10.60;;
14817;SDS011;7500;57.698;11.986;2023-04-24T06:17:49;15.40;;;9.63;;
14817;SDS011;7500;57.698;11.986;2023-04-24T06:21:16;26.37;;;11.13;;
14817;SDS011;7500;57.698;11.986;2023-04-24T06:24:41;13.07;;;10.70;;
14817;SDS011;7500;57.698;11.986;2023-04-24T06:28:07;15.27;;;9.60;;
14817;SDS011;7500;57.698;11.986;2023-04-24T06:31:34;15.43;;;10.00;;
14817;SDS011;7500;57.698;11.986;2023-04-24T06:34:59;21.90;;;10.07;;
14817;SDS011;7500;57.698;11.986;2023-04-24T06:38:25;31.73;;;10.90;;
14817;SDS011;7500;57.698;11.986;2023-04-24T06:41:50;16.80;;;10.27;;
14817;SDS011;7500;57.698;11.986;2023-04-24T06:45:15;16.73;;;10.27;;
14817;SDS011;7500;57.698;11.986;2023-04-24T06:48:42;22.80;;;10.03;;
14817;SDS011;7500;57.698;11.986;2023-04-24T06:52:08;10.10;;;8.97;;
14817;SDS011;7500;57.698;11.986;2023-04-24T06:55:36;11.17;;;9.37;;
14817;SDS011;7500;57.698;11.986;2023-04-24T06:59:01;12.23;;;9.03;;
14817;SDS011;7500;57.698;11.986;2023-04-24T07:02:28;14.20;;;9.57;;
14817;SDS011;7500;57.698;11.986;2023-04-24T07:05:55;15.03;;;9.97;;
14817;SDS011;7500;57.698;11.986;2023-04-24T07:09:22;11.40;;;9.83;;
14817;SDS011;7500;57.698;11.986;2023-04-24T07:12:48;12.07;;;9.73;;
14817;SDS011;7500;57.698;11.986;2023-04-24T07:16:13;10.30;;;9.20;;
14817;SDS011;7500;57.698;11.986;2023-04-24T07:19:39;11.43;;;9.47;;
14817;SDS011;7500;57.698;11.986;2023-04-24T07:23:07;10.70;;;9.57;;
14817;SDS011;7500;57.698;11.986;2023-04-24T07:26:35;11.87;;;9.33;;
14817;SDS011;7500;57.698;11.986;2023-04-24T07:30:02;11.97;;;9.77;;
14817;SDS011;7500;57.698;11.986;2023-04-24T07:33:28;10.73;;;8.63;;
14817;SDS011;7500;57.698;11.986;2023-04-24T07:36:53;10.83;;;9.23;;
14817;SDS011;7500;57.698;11.986;2023-04-24T07:40:20;10.87;;;9.17;;
14817;SDS011;7500;57.698;11.986;2023-04-24T07:43:47;13.90;;;9.57;;
14817;SDS011;7500;57.698;11.986;2023-04-24T07:47:12;11.40;;;9.13;;
14817;SDS011;7500;57.698;11.986;2023-04-24T07:50:40;11.73;;;8.90;;
14817;SDS011;7500;57.698;11.986;2023-04-24T07:54:06;14.63;;;10.53;;
14817;SDS011;7500;57.698;11.986;2023-04-24T07:57:33;12.50;;;10.57;;
14817;SDS011;7500;57.698;11.986;2023-04-24T08:00:59;15.67;;;11.47;;
14817;SDS011;7500;57.698;11.986;2023-04-24T08:04:26;18.40;;;12.90;;
14817;SDS011;7500;57.698;11.986;2023-04-24T08:07:53;16.87;;;12.00;;
14817;SDS011;7500;57.698;11.986;2023-04-24T08:11:18;15.97;;;12.30;;
14817;SDS011;7500;57.698;11.986;2023-04-24T08:14:45;16.73;;;12.20;;
14817;SDS011;7500;57.698;11.986;2023-04-24T08:18:11;17.47;;;12.60;;
14817;SDS011;7500;57.698;11.986;2023-04-24T08:21:37;15.13;;;11.57;;
14817;SDS011;7500;57.698;11.986;2023-04-24T08:25:02;14.00;;;12.03;;
14817;SDS011;7500;57.698;11.986;2023-04-24T08:28:28;16.60;;;11.93;;
14817;SDS011;7500;57.698;11.986;2023-04-24T08:31:55;16.43;;;12.47;;
14817;SDS011;7500;57.698;11.986;2023-04-24T08:35:21;15.13;;;12.00;;
14817;SDS011;7500;57.698;11.986;2023-04-24T08:38:46;14.43;;;11.87;;
14817;SDS011;7500;57.698;11.986;2023-04-24T08:42:12;18.20;;;11.97;;
14817;SDS011;7500;57.698;11.986;2023-04-24T08:45:39;20.53;;;12.47;;
14817;SDS011;7500;57.698;11.986;2023-04-24T08:49:07;16.90;;;12.90;;
14817;SDS011;7500;57.698;11.986;2023-04-24T08:52:33;15.03;;;11.37;;
14817;SDS011;7500;57.698;11.986;2023-04-24T08:55:59;17.60;;;11.80;;
14817;SDS011;7500;57.698;11.986;2023-04-24T08:59:28;20.53;;;13.23;;
14817;SDS011;7500;57.698;11.986;2023-04-24T09:02:54;14.13;;;10.20;;
14817;SDS011;7500;57.698;11.986;2023-04-24T09:06:24;12.80;;;9.30;;
14817;SDS011;7500;57.698;11.986;2023-04-24T09:09:51;14.00;;;9.50;;
14817;SDS011;7500;57.698;11.986;2023-04-24T09:13:17;10.93;;;8.70;;
14817;SDS011;7500;57.698;11.986;2023-04-24T09:16:44;9.63;;;8.03;;
14817;SDS011;7500;57.698;11.986;2023-04-24T09:20:10;10.67;;;8.67;;
14817;SDS011;7500;57.698;11.986;2023-04-24T09:23:37;11.37;;;8.83;;
14817;SDS011;7500;57.698;11.986;2023-04-24T09:27:04;12.80;;;9.50;;
14817;SDS011;7500;57.698;11.986;2023-04-24T09:30:31;10.67;;;9.20;;
14817;SDS011;7500;57.698;11.986;2023-04-24T09:33:57;13.50;;;9.10;;
14817;SDS011;7500;57.698;11.986;2023-04-24T09:37:34;15.50;;;10.40;;
14817;SDS011;7500;57.698;11.986;2023-04-24T09:41:03;13.57;;;9.67;;
14817;SDS011;7500;57.698;11.986;2023-04-24T09:44:29;17.27;;;11.27;;
14817;SDS011;7500;57.698;11.986;2023-04-24T09:47:55;12.97;;;10.20;;
14817;SDS011;7500;57.698;11.986;2023-04-24T09:51:21;14.47;;;9.63;;
14817;SDS011;7500;57.698;11.986;2023-04-24T09:54:57;14.70;;;10.70;;
14817;SDS011;7500;57.698;11.986;2023-04-24T09:58:29;11.67;;;9.57;;
14817;SDS011;7500;57.698;11.986;2023-04-24T10:01:55;11.43;;;9.67;;
14817;SDS011;7500;57.698;11.986;2023-04-24T10:05:26;16.57;;;9.90;;
14817;SDS011;7500;57.698;11.986;2023-04-24T10:08:57;10.37;;;9.23;;
14817;SDS011;7500;57.698;11.986;2023-04-24T10:12:22;10.93;;;9.13;;
14817;SDS011;7500;57.698;11.986;2023-04-24T10:15:49;10.50;;;8.50;;
14817;SDS011;7500;57.698;11.986;2023-04-24T10:19:16;13.97;;;10.30;;
14817;SDS011;7500;57.698;11.986;2023-04-24T10:22:42;9.63;;;8.63;;
14817;SDS011;7500;57.698;11.986;2023-04-24T10:26:08;14.73;;;10.63;;
14817;SDS011;7500;57.698;11.986;2023-04-24T10:29:34;15.87;;;11.27;;
14817;SDS011;7500;57.698;11.986;2023-04-24T10:33:03;11.03;;;9.87;;
14817;SDS011;7500;57.698;11.986;2023-04-24T10:36:29;11.60;;;10.07;;
14817;SDS011;7500;57.698;11.986;2023-04-24T10:40:01;10.90;;;9.60;;
14817;SDS011;7500;57.698;11.986;2023-04-24T10:43:34;10.30;;;9.30;;
14817;SDS011;7500;57.698;11.986;2023-04-24T10:47:02;10.97;;;9.83;;
14817;SDS011;7500;57.698;11.986;2023-04-24T10:50:42;10.20;;;8.57;;
14817;SDS011;7500;57.698;11.986;2023-04-24T10:54:24;9.30;;;8.37;;
14817;SDS011;7500;57.698;11.986;2023-04-24T10:58:12;8.87;;;7.93;;
14817;SDS011;7500;57.698;11.986;2023-04-24T11:01:52;7.77;;;7.00;;
14817;SDS011;7500;57.698;11.986;2023-04-24T11:05:21;7.60;;;6.33;;
14817;SDS011;7500;57.698;11.986;2023-04-24T11:08:58;9.50;;;6.93;;
14817;SDS011;7500;57.698;11.986;2023-04-24T11:12:26;7.37;;;6.43;;
14817;SDS011;7500;57.698;11.986;2023-04-24T11:19:53;9.97;;;6.53;;
14817;SDS011;7500;57.698;11.986;2023-04-24T11:23:38;7.13;;;6.27;;
14817;SDS011;7500;57.698;11.986;2023-04-24T11:27:06;6.67;;;5.87;;
14817;SDS011;7500;57.698;11.986;2023-04-24T11:30:32;6.77;;;5.93;;
14817;SDS011;7500;57.698;11.986;2023-04-24T11:34:11;5.77;;;5.27;;
14817;SDS011;7500;57.698;11.986;2023-04-24T11:37:43;7.03;;;5.53;;
14817;SDS011;7500;57.698;11.986;2023-04-24T11:41:09;5.90;;;5.40;;
14817;SDS011;7500;57.698;11.986;2023-04-24T11:44:35;6.00;;;5.40;;
14817;SDS011;7500;57.698;11.986;2023-04-24T11:48:02;5.43;;;4.93;;
14817;SDS011;7500;57.698;11.986;2023-04-24T11:51:27;5.97;;;5.10;;
14817;SDS011;7500;57.698;11.986;2023-04-24T11:54:54;5.80;;;5.20;;
14817;SDS011;7500;57.698;11.986;2023-04-24T11:58:20;5.37;;;4.87;;
14817;SDS011;7500;57.698;11.986;2023-04-24T12:01:46;4.77;;;4.37;;
14817;SDS011;7500;57.698;11.986;2023-04-24T12:05:18;5.13;;;4.63;;
14817;SDS011;7500;57.698;11.986;2023-04-24T12:08:45;6.67;;;4.57;;
14817;SDS011;7500;57.698;11.986;2023-04-24T12:12:14;5.63;;;4.93;;
14817;SDS011;7500;57.698;11.986;2023-04-24T12:15:40;5.73;;;4.53;;
14817;SDS011;7500;57.698;11.986;2023-04-24T12:19:05;4.30;;;3.90;;
14817;SDS011;7500;57.698;11.986;2023-04-24T12:22:45;4.33;;;3.80;;
14817;SDS011;7500;57.698;11.986;2023-04-24T12:26:11;6.20;;;4.80;;
14817;SDS011;7500;57.698;11.986;2023-04-24T12:29:51;5.10;;;4.20;;
14817;SDS011;7500;57.698;11.986;2023-04-24T12:33:17;4.47;;;3.90;;
14817;SDS011;7500;57.698;11.986;2023-04-24T12:36:46;3.80;;;3.50;;
14817;SDS011;7500;57.698;11.986;2023-04-24T12:40:12;7.77;;;4.27;;
14817;SDS011;7500;57.698;11.986;2023-04-24T12:43:40;5.83;;;3.70;;
14817;SDS011;7500;57.698;11.986;2023-04-24T12:47:15;3.50;;;3.17;;
14817;SDS011;7500;57.698;11.986;2023-04-24T12:50:41;5.70;;;3.47;;
14817;SDS011;7500;57.698;11.986;2023-04-24T12:54:06;3.80;;;3.40;;
14817;SDS011;7500;57.698;11.986;2023-04-24T12:57:33;3.50;;;3.20;;
14817;SDS011;7500;57.698;11.986;2023-04-24T13:01:00;3.50;;;3.20;;
14817;SDS011;7500;57.698;11.986;2023-04-24T13:04:25;3.70;;;3.40;;
14817;SDS011;7500;57.698;11.986;2023-04-24T13:07:51;7.00;;;3.50;;
14817;SDS011;7500;57.698;11.986;2023-04-24T13:11:17;5.57;;;3.73;;
14817;SDS011;7500;57.698;11.986;2023-04-24T13:14:42;5.17;;;3.70;;
14817;SDS011;7500;57.698;11.986;2023-04-24T13:18:09;6.33;;;4.30;;
14817;SDS011;7500;57.698;11.986;2023-04-24T13:21:35;7.00;;;4.23;;
14817;SDS011;7500;57.698;11.986;2023-04-24T13:25:02;4.17;;;3.30;;
14817;SDS011;7500;57.698;11.986;2023-04-24T13:28:28;8.50;;;3.93;;
14817;SDS011;7500;57.698;11.986;2023-04-24T13:31:54;6.63;;;4.00;;
14817;SDS011;7500;57.698;11.986;2023-04-24T13:35:21;8.53;;;4.50;;
14817;SDS011;7500;57.698;11.986;2023-04-24T13:38:46;5.90;;;3.90;;
14817;SDS011;7500;57.698;11.986;2023-04-24T13:42:11;5.00;;;4.10;;
14817;SDS011;7500;57.698;11.986;2023-04-24T13:45:37;5.40;;;3.67;;
14817;SDS011;7500;57.698;11.986;2023-04-24T13:49:03;6.33;;;4.10;;
14817;SDS011;7500;57.698;11.986;2023-04-24T13:52:30;4.33;;;3.13;;
14817;SDS011;7500;57.698;11.986;2023-04-24T13:55:55;6.20;;;3.70;;
14817;SDS011;7500;57.698;11.986;2023-04-24T13:59:22;7.33;;;4.30;;
14817;SDS011;7500;57.698;11.986;2023-04-24T14:02:48;4.63;;;4.00;;
14817;SDS011;7500;57.698;11.986;2023-04-24T14:06:13;11.43;;;4.00;;
14817;SDS011;7500;57.698;11.986;2023-04-24T14:09:41;9.17;;;4.33;;
14817;SDS011;7500;57.698;11.986;2023-04-24T14:13:07;10.57;;;4.80;;
14817;SDS011;7500;57.698;11.986;2023-04-24T14:16:33;6.30;;;4.90;;
14817;SDS011;7500;57.698;11.986;2023-04-24T14:19:58;7.53;;;5.50;;
14817;SDS011;7500;57.698;11.986;2023-04-24T14:23:24;8.40;;;5.83;;
14817;SDS011;7500;57.698;11.986;2023-04-24T14:26:51;8.50;;;6.10;;
14817;SDS011;7500;57.698;11.986;2023-04-24T14:30:17;13.57;;;6.43;;
14817;SDS011;7500;57.698;11.986;2023-04-24T14:33:42;8.73;;;5.83;;
14817;SDS011;7500;57.698;11.986;2023-04-24T14:37:08;13.07;;;6.40;;
14817;SDS011;7500;57.698;11.986;2023-04-24T14:40:34;7.90;;;6.10;;
14817;SDS011;7500;57.698;11.986;2023-04-24T14:44:02;8.97;;;6.03;;
14817;SDS011;7500;57.698;11.986;2023-04-24T14:47:27;6.53;;;5.90;;
14817;SDS011;7500;57.698;11.986;2023-04-24T14:50:53;8.23;;;6.70;;
14817;SDS011;7500;57.698;11.986;2023-04-24T14:54:19;5.97;;;5.37;;
14817;SDS011;7500;57.698;11.986;2023-04-24T14:57:44;11.37;;;6.27;;
14817;SDS011;7500;57.698;11.986;2023-04-24T15:01:11;13.20;;;6.47;;
14817;SDS011;7500;57.698;11.986;2023-04-24T15:04:37;7.00;;;6.00;;
14817;SDS011;7500;57.698;11.986;2023-04-24T15:08:02;7.70;;;5.67;;
14817;SDS011;7500;57.698;11.986;2023-04-24T15:11:28;10.63;;;6.27;;
14817;SDS011;7500;57.698;11.986;2023-04-24T15:14:55;8.13;;;6.17;;
14817;SDS011;7500;57.698;11.986;2023-04-24T15:18:22;8.60;;;6.70;;
14817;SDS011;7500;57.698;11.986;2023-04-24T15:21:47;7.93;;;5.50;;
14817;SDS011;7500;57.698;11.986;2023-04-24T15:25:13;11.40;;;6.10;;
14817;SDS011;7500;57.698;11.986;2023-04-24T15:28:39;10.20;;;6.50;;
14817;SDS011;7500;57.698;11.986;2023-04-24T15:32:04;6.13;;;5.63;;
14817;SDS011;7500;57.698;11.986;2023-04-24T15:35:31;6.47;;;5.87;;
14817;SDS011;7500;57.698;11.986;2023-04-24T15:38:57;6.63;;;5.40;;
14817;SDS011;7500;57.698;11.986;2023-04-24T15:42:24;8.30;;;5.97;;
14817;SDS011;7500;57.698;11.986;2023-04-24T15:45:50;10.87;;;5.63;;
14817;SDS011;7500;57.698;11.986;2023-04-24T15:49:16;6.47;;;5.77;;
14817;SDS011;7500;57.698;11.986;2023-04-24T15:52:44;5.90;;;5.40;;
14817;SDS011;7500;57.698;11.986;2023-04-24T15:56:11;5.93;;;5.33;;
14817;SDS011;7500;57.698;11.986;2023-04-24T15:59:37;6.63;;;5.13;;
14817;SDS011;7500;57.698;11.986;2023-04-24T16:03:02;5.73;;;5.23;;
14817;SDS011;7500;57.698;11.986;2023-04-24T16:06:28;6.03;;;5.43;;
14817;SDS011;7500;57.698;11.986;2023-04-24T16:09:55;5.60;;;4.93;;
14817;SDS011;7500;57.698;11.986;2023-04-24T16:13:20;5.67;;;5.17;;
14817;SDS011;7500;57.698;11.986;2023-04-24T16:16:46;5.90;;;5.27;;
14817;SDS011;7500;57.698;11.986;2023-04-24T16:20:12;5.53;;;5.03;;
14817;SDS011;7500;57.698;11.986;2023-04-24T16:23:37;8.53;;;5.40;;
14817;SDS011;7500;57.698;11.986;2023-04-24T16:27:04;5.83;;;5.27;;
14817;SDS011;7500;57.698;11.986;2023-04-24T16:30:30;6.17;;;5.53;;
14817;SDS011;7500;57.698;11.986;2023-04-24T16:33:55;8.20;;;5.10;;
14817;SDS011;7500;57.698;11.986;2023-04-24T16:37:21;6.50;;;5.90;;
14817;SDS011;7500;57.698;11.986;2023-04-24T16:40:48;7.87;;;5.70;;
14817;SDS011;7500;57.698;11.986;2023-04-24T16:44:15;5.37;;;4.87;;
14817;SDS011;7500;57.698;11.986;2023-04-24T16:47:41;5.97;;;5.37;;
14817;SDS011;7500;57.698;11.986;2023-04-24T16:51:06;6.73;;;5.90;;
14817;SDS011;7500;57.698;11.986;2023-04-24T16:54:32;6.90;;;6.17;;
14817;SDS011;7500;57.698;11.986;2023-04-24T16:57:57;6.30;;;5.70;;
14817;SDS011;7500;57.698;11.986;2023-04-24T17:01:24;5.57;;;5.07;;
14817;SDS011;7500;57.698;11.986;2023-04-24T17:04:50;6.17;;;5.57;;
14817;SDS011;7500;57.698;11.986;2023-04-24T17:08:16;6.73;;;6.03;;
14817;SDS011;7500;57.698;11.986;2023-04-24T17:11:41;7.07;;;5.97;;
14817;SDS011;7500;57.698;11.986;2023-04-24T17:15:07;6.60;;;5.97;;
14817;SDS011;7500;57.698;11.986;2023-04-24T17:18:34;6.37;;;5.50;;
14817;SDS011;7500;57.698;11.986;2023-04-24T17:21:59;6.33;;;5.73;;
14817;SDS011;7500;57.698;11.986;2023-04-24T17:25:25;8.30;;;6.43;;
14817;SDS011;7500;57.698;11.986;2023-04-24T17:28:50;6.70;;;6.00;;
14817;SDS011;7500;57.698;11.986;2023-04-24T17:32:16;14.50;;;7.77;;
14817;SDS011;7500;57.698;11.986;2023-04-24T17:35:43;15.90;;;7.63;;
14817;SDS011;7500;57.698;11.986;2023-04-24T17:39:09;15.37;;;8.40;;
14817;SDS011;7500;57.698;11.986;2023-04-24T17:42:35;10.40;;;7.93;;
14817;SDS011;7500;57.698;11.986;2023-04-24T17:46:00;15.50;;;9.13;;
14817;SDS011;7500;57.698;11.986;2023-04-24T17:49:26;16.50;;;10.03;;
14817;SDS011;7500;57.698;11.986;2023-04-24T17:52:53;14.80;;;10.07;;
14817;SDS011;7500;57.698;11.986;2023-04-24T17:56:18;15.67;;;9.77;;
14817;SDS011;7500;57.698;11.986;2023-04-24T17:59:44;17.17;;;9.60;;
14817;SDS011;7500;57.698;11.986;2023-04-24T18:03:10;16.77;;;9.77;;
14817;SDS011;7500;57.698;11.986;2023-04-24T18:06:35;14.73;;;9.07;;
14817;SDS011;7500;57.698;11.986;2023-04-24T18:10:02;12.67;;;8.73;;
14817;SDS011;7500;57.698;11.986;2023-04-24T18:13:28;11.67;;;8.97;;
14817;SDS011;7500;57.698;11.986;2023-04-24T18:16:54;11.57;;;8.70;;
14817;SDS011;7500;57.698;11.986;2023-04-24T18:20:19;15.13;;;9.30;;
14817;SDS011;7500;57.698;11.986;2023-04-24T18:23:45;12.73;;;7.87;;
14817;SDS011;7500;57.698;11.986;2023-04-24T18:27:12;10.80;;;7.87;;
14817;SDS011;7500;57.698;11.986;2023-04-24T18:30:37;9.73;;;7.10;;
14817;SDS011;7500;57.698;11.986;2023-04-24T18:34:03;8.80;;;7.27;;
14817;SDS011;7500;57.698;11.986;2023-04-24T18:37:29;8.03;;;6.57;;
14817;SDS011;7500;57.698;11.986;2023-04-24T18:40:54;6.80;;;5.87;;
14817;SDS011;7500;57.698;11.986;2023-04-24T18:44:21;10.50;;;7.57;;
14817;SDS011;7500;57.698;11.986;2023-04-24T18:47:46;13.83;;;7.70;;
14817;SDS011;7500;57.698;11.986;2023-04-24T18:51:12;8.33;;;7.27;;
14817;SDS011;7500;57.698;11.986;2023-04-24T18:54:37;12.47;;;7.57;;
14817;SDS011;7500;57.698;11.986;2023-04-24T18:58:03;16.50;;;8.50;;
14817;SDS011;7500;57.698;11.986;2023-04-24T19:01:30;10.10;;;7.60;;
14817;SDS011;7500;57.698;11.986;2023-04-24T19:04:55;18.30;;;8.97;;
14817;SDS011;7500;57.698;11.986;2023-04-24T19:08:20;13.47;;;8.03;;
14817;SDS011;7500;57.698;11.986;2023-04-24T19:11:46;13.77;;;7.33;;
14817;SDS011;7500;57.698;11.986;2023-04-24T19:15:13;9.83;;;7.73;;
14817;SDS011;7500;57.698;11.986;2023-04-24T19:18:40;12.33;;;8.10;;
14817;SDS011;7500;57.698;11.986;2023-04-24T19:22:05;7.70;;;6.47;;
14817;SDS011;7500;57.698;11.986;2023-04-24T19:25:31;11.73;;;7.63;;
14817;SDS011;7500;57.698;11.986;2023-04-24T19:28:56;15.03;;;7.17;;
14817;SDS011;7500;57.698;11.986;2023-04-24T19:32:22;14.87;;;8.17;;
14817;SDS011;7500;57.698;11.986;2023-04-24T19:35:49;13.93;;;8.93;;
14817;SDS011;7500;57.698;11.986;2023-04-24T19:39:14;8.13;;;7.03;;
14817;SDS011;7500;57.698;11.986;2023-04-24T19:42:40;13.27;;;7.40;;
14817;SDS011;7500;57.698;11.986;2023-04-24T19:46:05;12.53;;;7.60;;
14817;SDS011;7500;57.698;11.986;2023-04-24T19:49:31;9.27;;;6.87;;
14817;SDS011;7500;57.698;11.986;2023-04-24T19:52:58;11.17;;;7.43;;
14817;SDS011;7500;57.698;11.986;2023-04-24T19:56:23;12.87;;;8.10;;
14817;SDS011;7500;57.698;11.986;2023-04-24T19:59:49;14.27;;;7.83;;
14817;SDS011;7500;57.698;11.986;2023-04-24T20:03:14;10.93;;;7.83;;
14817;SDS011;7500;57.698;11.986;2023-04-24T20:06:39;8.50;;;6.57;;
14817;SDS011;7500;57.698;11.986;2023-04-24T20:10:07;9.20;;;7.00;;
14817;SDS011;7500;57.698;11.986;2023-04-24T20:13:33;8.80;;;6.53;;
14817;SDS011;7500;57.698;11.986;2023-04-24T20:16:58;9.07;;;6.50;;
14817;SDS011;7500;57.698;11.986;2023-04-24T20:20:24;10.37;;;6.67;;
14817;SDS011;7500;57.698;11.986;2023-04-24T20:23:49;10.37;;;6.90;;
14817;SDS011;7500;57.698;11.986;2023-04-24T20:27:17;8.77;;;7.63;;
14817;SDS011;7500;57.698;11.986;2023-04-24T20:30:42;11.33;;;7.30;;